createdAt,value
2018-04-24T00:01:23.055Z,20.10
2018-04-24T00:03:51.278Z,19.90
2018-04-24T00:06:18.741Z,21.50
2018-04-24T00:08:46.261Z,25.57
2018-04-24T00:11:13.716Z,25.93
2018-04-24T00:13:41.189Z,24.70
2018-04-24T00:16:08.648Z,25.90
2018-04-24T00:18:36.197Z,25.63
2018-04-24T00:21:03.692Z,24.00
2018-04-24T00:23:31.156Z,23.70
2018-04-24T00:25:58.624Z,21.43
2018-04-24T00:28:26.133Z,21.90
2018-04-24T00:30:53.604Z,20.20
2018-04-24T00:33:21.090Z,20.73
2018-04-24T00:35:48.593Z,20.03
2018-04-24T00:38:16.065Z,18.40
2018-04-24T00:40:43.544Z,19.87
2018-04-24T00:43:11.008Z,22.43
2018-04-24T00:45:38.512Z,23.00
2018-04-24T00:48:05.981Z,25.03
2018-04-24T00:50:33.437Z,25.63
2018-04-24T00:53:01.671Z,27.10
2018-04-24T00:55:29.135Z,25.83
2018-04-24T00:57:56.645Z,28.73
2018-04-24T01:00:24.121Z,28.40
2018-04-24T01:02:51.605Z,26.93
2018-04-24T01:05:19.073Z,25.17
2018-04-24T01:07:46.564Z,26.33
2018-04-24T01:10:14.026Z,26.30
2018-04-24T01:12:41.546Z,27.90
2018-04-24T01:15:09.000Z,27.10
2018-04-24T01:17:36.462Z,27.43
2018-04-24T01:20:04.693Z,28.40
2018-04-24T01:22:32.208Z,27.70
2018-04-24T01:24:59.670Z,27.53
2018-04-24T01:27:27.164Z,28.57
2018-04-24T01:29:54.631Z,27.07
2018-04-24T01:32:22.144Z,26.03
2018-04-24T01:34:49.601Z,28.40
2018-04-24T01:37:17.085Z,28.83
2018-04-24T01:39:44.544Z,30.73
2018-04-24T01:42:12.006Z,29.40
2018-04-24T01:44:40.232Z,28.87
2018-04-24T01:47:07.688Z,33.60
2018-04-24T01:49:35.921Z,31.70
2018-04-24T01:52:03.387Z,33.83
2018-04-24T01:54:30.849Z,34.83
2018-04-24T01:56:59.107Z,33.17
2018-04-24T01:59:26.565Z,35.37
2018-04-24T02:01:54.077Z,38.17
2018-04-24T02:04:21.555Z,36.37
2018-04-24T02:06:49.012Z,47.07
2018-04-24T02:09:16.520Z,40.03
2018-04-24T02:11:44.002Z,42.90
2018-04-24T02:14:11.466Z,50.53
2018-04-24T02:16:38.924Z,51.90
2018-04-24T02:19:07.161Z,49.70
2018-04-24T02:21:34.627Z,49.57
2018-04-24T02:24:02.106Z,50.93
2018-04-24T02:26:29.572Z,47.93
2018-04-24T02:28:57.807Z,46.97
2018-04-24T02:31:25.279Z,46.73
2018-04-24T02:33:52.740Z,47.57
2018-04-24T02:36:20.984Z,47.13
2018-04-24T02:38:48.445Z,46.73
2018-04-24T02:41:15.940Z,44.43
2018-04-24T02:43:43.430Z,48.10
2018-04-24T02:46:10.916Z,50.80
2018-04-24T02:48:38.393Z,48.33
2018-04-24T02:51:05.856Z,49.47
2018-04-24T02:53:33.330Z,48.07
2018-04-24T02:56:00.790Z,47.00
2018-04-24T02:58:29.024Z,50.20
2018-04-24T03:00:56.525Z,45.40
2018-04-24T03:03:23.989Z,46.23
2018-04-24T03:05:51.452Z,49.53
2018-04-24T03:08:18.911Z,48.20
2018-04-24T03:10:47.165Z,46.70
2018-04-24T03:13:14.626Z,42.47
2018-04-24T03:15:42.084Z,46.60
2018-04-24T03:18:09.539Z,47.33
2018-04-24T03:20:37.005Z,45.97
2018-04-24T03:23:04.484Z,44.53
2018-04-24T03:25:31.954Z,43.90
2018-04-24T03:27:59.458Z,44.30
2018-04-24T03:30:26.997Z,45.23
2018-04-24T03:32:55.247Z,43.83
2018-04-24T03:35:22.723Z,43.33
2018-04-24T03:37:50.188Z,44.80
2018-04-24T03:40:17.661Z,41.97
2018-04-24T03:42:45.884Z,43.53
2018-04-24T03:45:14.125Z,45.67
2018-04-24T03:47:41.608Z,43.57
2018-04-24T03:50:09.096Z,40.13
2018-04-24T03:52:36.561Z,41.20
2018-04-24T03:55:04.017Z,40.20
2018-04-24T03:57:31.486Z,38.90
2018-04-24T03:59:58.949Z,39.03
2018-04-24T04:02:26.424Z,38.83
2018-04-24T04:04:53.893Z,38.17
2018-04-24T04:07:21.405Z,35.37
2018-04-24T04:09:48.858Z,36.57
2018-04-24T04:12:16.370Z,37.07
2018-04-24T04:14:43.834Z,34.47
2018-04-24T04:17:23.520Z,34.70
2018-04-24T04:20:03.612Z,34.70
2018-04-24T04:22:42.933Z,33.77
2018-04-24T04:25:11.158Z,30.93
2018-04-24T04:27:38.608Z,31.67
2018-04-24T04:30:06.832Z,31.37
2018-04-24T04:32:35.130Z,31.77
2018-04-24T04:35:03.435Z,35.20
2018-04-24T04:37:31.668Z,33.33
2018-04-24T04:39:59.892Z,32.70
2018-04-24T04:42:27.357Z,36.23
2018-04-24T04:44:55.582Z,37.40
2018-04-24T04:47:23.041Z,37.63
2018-04-24T04:49:51.269Z,39.70
2018-04-24T04:52:18.777Z,39.60
2018-04-24T04:54:46.241Z,36.90
2018-04-24T04:57:13.757Z,37.00
2018-04-24T04:59:41.276Z,38.07
2018-04-24T05:02:08.757Z,37.07
2018-04-24T05:04:36.263Z,35.20
2018-04-24T05:07:03.727Z,33.07
2018-04-24T05:09:31.966Z,32.77
2018-04-24T05:11:59.429Z,30.97
2018-04-24T05:14:27.685Z,28.60
2018-04-24T05:16:55.152Z,29.40
2018-04-24T05:19:22.617Z,29.27
2018-04-24T05:21:50.072Z,28.80
2018-04-24T05:24:18.305Z,28.40
2018-04-24T05:26:45.763Z,30.30
2018-04-24T05:29:14.017Z,29.40
2018-04-24T05:31:41.476Z,26.70
2018-04-24T05:34:09.732Z,27.03
2018-04-24T05:36:37.209Z,25.83
2018-04-24T05:39:04.683Z,24.37
2018-04-24T05:41:32.174Z,26.17
2018-04-24T05:43:59.646Z,25.47
2018-04-24T05:46:27.158Z,25.00
2018-04-24T05:48:54.624Z,25.57
2018-04-24T05:51:22.081Z,27.47
2018-04-24T05:53:49.545Z,26.30
2018-04-24T05:56:17.801Z,26.33
2018-04-24T05:58:45.381Z,26.53
2018-04-24T06:01:12.873Z,25.93
2018-04-24T06:03:40.444Z,24.00
2018-04-24T06:06:07.906Z,27.60
2018-04-24T06:08:35.379Z,25.10
2018-04-24T06:11:03.624Z,25.07
2018-04-24T06:13:31.093Z,24.30
2018-04-24T06:15:58.601Z,23.13
2018-04-24T06:18:26.069Z,25.13
2018-04-24T06:20:53.559Z,22.50
2018-04-24T06:23:21.035Z,22.03
2018-04-24T06:25:48.515Z,18.27
2018-04-24T06:28:16.015Z,19.23
2018-04-24T06:30:43.473Z,18.87
2018-04-24T06:33:11.720Z,18.93
2018-04-24T06:35:39.176Z,19.80
2018-04-24T06:38:06.643Z,20.93
2018-04-24T06:40:34.167Z,20.03
2018-04-24T06:43:01.625Z,21.00
2018-04-24T06:45:29.131Z,20.23
2018-04-24T06:47:56.592Z,19.57
2018-04-24T06:50:24.106Z,20.37
2018-04-24T06:52:51.588Z,20.53
2018-04-24T06:55:19.045Z,18.60
2018-04-24T06:57:46.505Z,17.40
2018-04-24T07:00:14.732Z,18.07
2018-04-24T07:02:42.232Z,18.17
2018-04-24T07:05:09.713Z,17.23
2018-04-24T07:07:37.201Z,15.80
2018-04-24T07:10:04.662Z,15.83
2018-04-24T07:12:32.121Z,15.23
2018-04-24T07:14:59.584Z,16.33
2018-04-24T07:17:27.840Z,13.50
2018-04-24T07:19:55.324Z,12.47
2018-04-24T07:22:22.805Z,12.80
2018-04-24T07:24:50.283Z,11.67
2018-04-24T07:27:17.742Z,9.40
2018-04-24T07:29:45.250Z,8.50
2018-04-24T07:32:12.728Z,7.80
2018-04-24T07:34:40.213Z,7.53
2018-04-24T07:37:07.693Z,7.00
2018-04-24T07:39:35.156Z,6.73
2018-04-24T07:42:02.615Z,7.32
2018-04-24T07:44:30.848Z,7.10
2018-04-24T07:46:58.305Z,6.72
2018-04-24T07:49:26.560Z,7.00
2018-04-24T07:51:54.025Z,5.93
2018-04-24T07:54:21.536Z,5.97
2018-04-24T07:56:49.015Z,5.55
2018-04-24T07:59:16.645Z,5.28
2018-04-24T08:01:44.178Z,5.45
2018-04-24T08:04:11.676Z,5.03
2018-04-24T08:06:39.125Z,4.90
2018-04-24T08:09:06.580Z,5.72
2018-04-24T08:11:34.831Z,6.03
2018-04-24T08:14:02.312Z,5.77
2018-04-24T08:16:29.782Z,5.63
2018-04-24T08:18:57.237Z,6.10
2018-04-24T08:21:25.480Z,6.07
2018-04-24T08:23:52.981Z,6.30
2018-04-24T08:26:20.453Z,6.90
2018-04-24T08:28:47.938Z,6.37
2018-04-24T08:31:15.481Z,7.30
2018-04-24T08:33:43.800Z,6.90
2018-04-24T08:36:11.312Z,6.97
2018-04-24T08:38:38.772Z,6.77
2018-04-24T08:41:06.232Z,7.10
2018-04-24T08:43:34.484Z,5.93
2018-04-24T08:46:01.981Z,6.77
2018-04-24T08:48:29.445Z,6.03
2018-04-24T08:50:56.937Z,6.53
2018-04-24T08:53:24.420Z,7.28
2018-04-24T08:55:51.902Z,6.62
2018-04-24T08:58:19.392Z,6.35
2018-04-24T09:00:46.861Z,6.72
2018-04-24T09:03:14.341Z,7.97
2018-04-24T09:05:41.805Z,7.68
2018-04-24T09:08:09.256Z,7.57
2018-04-24T09:10:36.717Z,8.48
2018-04-24T09:13:04.192Z,8.67
2018-04-24T09:15:31.663Z,8.63
2018-04-24T09:17:59.116Z,9.67
2018-04-24T09:20:26.574Z,9.67
2018-04-24T09:22:54.808Z,11.70
2018-04-24T09:25:22.321Z,11.60
2018-04-24T09:27:49.793Z,10.43
2018-04-24T09:30:17.248Z,9.30
2018-04-24T09:32:44.760Z,8.27
2018-04-24T09:35:17.968Z,9.17
2018-04-24T09:37:45.442Z,9.57
2018-04-24T09:40:12.897Z,8.30
2018-04-24T09:42:41.140Z,8.30
2018-04-24T09:45:08.595Z,7.57
2018-04-24T09:47:36.841Z,7.07
2018-04-24T09:50:04.297Z,7.50
2018-04-24T09:52:31.809Z,8.65
2018-04-24T09:54:59.291Z,8.40
2018-04-24T09:57:26.748Z,7.43
2018-04-24T09:59:54.257Z,7.55
2018-04-24T10:02:21.732Z,6.60
2018-04-24T10:04:49.195Z,7.80
2018-04-24T10:07:16.688Z,6.82
2018-04-24T10:09:44.149Z,7.30
2018-04-24T10:12:11.605Z,8.32
2018-04-24T10:14:39.159Z,7.78
2018-04-24T10:17:06.637Z,7.63
2018-04-24T10:19:34.136Z,8.47
2018-04-24T10:22:01.607Z,8.97
2018-04-24T10:24:29.094Z,8.40
2018-04-24T10:26:56.555Z,8.00
2018-04-24T10:29:24.024Z,6.43
2018-04-24T10:31:51.479Z,6.43
2018-04-24T10:34:19.741Z,6.37
2018-04-24T10:36:47.197Z,5.80
2018-04-24T10:39:14.701Z,5.83
2018-04-24T10:41:42.166Z,5.30
2018-04-24T10:44:09.633Z,6.12
2018-04-24T10:46:37.209Z,6.30
2018-04-24T10:49:05.454Z,5.95
2018-04-24T10:51:33.004Z,7.35
2018-04-24T10:54:00.456Z,8.32
2018-04-24T10:56:27.911Z,7.90
2018-04-24T10:58:55.399Z,8.03
2018-04-24T11:01:22.852Z,7.53
2018-04-24T11:03:50.391Z,7.40
2018-04-24T11:06:17.852Z,7.47
2018-04-24T11:08:45.322Z,6.60
2018-04-24T11:11:12.782Z,7.27
2018-04-24T11:13:40.298Z,6.47
2018-04-24T11:16:07.756Z,7.13
2018-04-24T11:18:35.253Z,6.10
2018-04-24T11:21:02.790Z,6.17
2018-04-24T11:23:31.020Z,6.10
2018-04-24T11:25:58.480Z,6.40
2018-04-24T11:28:26.709Z,6.67
2018-04-24T11:30:54.216Z,6.13
2018-04-24T11:33:21.751Z,6.40
2018-04-24T11:35:50.005Z,6.70
2018-04-24T11:38:18.674Z,5.40
2018-04-24T11:40:46.133Z,5.17
2018-04-24T11:43:14.389Z,5.53
2018-04-24T11:45:41.850Z,5.23
2018-04-24T11:48:09.324Z,5.97
2018-04-24T11:50:36.776Z,5.30
2018-04-24T11:53:04.228Z,5.00
2018-04-24T11:55:31.691Z,5.27
2018-04-24T11:57:59.199Z,4.83
2018-04-24T12:00:26.680Z,4.30
2018-04-24T12:02:54.171Z,4.57
2018-04-24T12:05:21.596Z,4.10
2018-04-24T12:07:49.132Z,4.10
2018-04-24T12:10:16.599Z,4.70
2018-04-24T12:12:44.089Z,5.00
2018-04-24T12:15:11.575Z,5.00
2018-04-24T12:17:39.036Z,4.87
2018-04-24T12:20:06.559Z,4.53
2018-04-24T12:22:34.037Z,4.10
2018-04-24T12:25:01.522Z,4.03
2018-04-24T12:27:28.981Z,4.20
2018-04-24T12:29:57.204Z,3.70
2018-04-24T12:32:24.661Z,4.50
2018-04-24T12:34:52.912Z,4.60
2018-04-24T12:37:20.402Z,3.40
2018-04-24T12:39:47.877Z,4.23
2018-04-24T12:42:15.364Z,3.77
2018-04-24T12:44:42.821Z,4.13
2018-04-24T12:47:10.277Z,4.90
2018-04-24T12:49:37.736Z,4.77
2018-04-24T12:52:05.191Z,4.63
2018-04-24T12:54:32.645Z,4.97
2018-04-24T12:57:00.215Z,3.87
2018-04-24T12:59:28.432Z,4.00
2018-04-24T13:01:56.672Z,3.70
2018-04-24T13:04:24.130Z,4.43
2018-04-24T13:06:51.644Z,3.00
2018-04-24T13:09:19.130Z,3.40
2018-04-24T13:11:46.585Z,3.87
2018-04-24T13:14:14.036Z,3.10
2018-04-24T13:16:41.588Z,3.60
2018-04-24T13:19:09.049Z,2.70
2018-04-24T13:21:36.513Z,2.90
2018-04-24T13:24:04.741Z,3.00
2018-04-24T13:26:32.196Z,3.40
2018-04-24T13:28:59.659Z,3.10
2018-04-24T13:31:27.221Z,2.57
2018-04-24T13:33:54.700Z,2.97
2018-04-24T13:36:22.286Z,3.00
2018-04-24T13:38:49.829Z,2.30
2018-04-24T13:41:17.355Z,2.40
2018-04-24T13:43:44.862Z,2.50
2018-04-24T13:46:12.428Z,2.70
2018-04-24T13:48:39.884Z,2.40
2018-04-24T13:51:07.339Z,3.20
2018-04-24T13:53:35.642Z,2.57
2018-04-24T13:56:03.860Z,2.20
2018-04-24T13:58:31.353Z,2.73
2018-04-24T14:00:58.996Z,2.50
2018-04-24T14:03:27.153Z,2.43
2018-04-24T14:05:54.610Z,3.50
2018-04-24T14:08:22.865Z,2.93
2018-04-24T14:10:50.316Z,2.80
2018-04-24T14:13:17.780Z,2.83
2018-04-24T14:15:45.239Z,3.30
2018-04-24T14:18:13.597Z,2.87
2018-04-24T14:20:41.066Z,3.30
2018-04-24T14:23:08.516Z,3.03
2018-04-24T14:25:36.745Z,3.00
2018-04-24T14:28:04.272Z,3.53
2018-04-24T14:30:31.753Z,3.50
2018-04-24T14:32:59.228Z,3.03
2018-04-24T14:36:47.402Z,3.17
2018-04-24T14:39:14.945Z,3.10
2018-04-24T14:41:42.400Z,3.20
2018-04-24T14:44:09.857Z,3.20
2018-04-24T14:46:38.121Z,3.10
2018-04-24T14:49:05.614Z,3.23
2018-04-24T14:51:33.174Z,3.30
2018-04-24T14:54:00.590Z,2.93
2018-04-24T14:56:28.049Z,3.17
2018-04-24T14:58:56.284Z,2.80
2018-04-24T15:01:23.790Z,2.83
2018-04-24T15:03:51.277Z,3.30
2018-04-24T15:06:18.730Z,3.00
2018-04-24T15:08:46.953Z,3.43
2018-04-24T15:11:14.505Z,3.17
2018-04-24T15:13:42.741Z,3.00
2018-04-24T15:16:10.249Z,2.97
2018-04-24T15:18:37.705Z,2.87
2018-04-24T15:21:05.921Z,2.87
2018-04-24T15:23:33.391Z,2.87
2018-04-24T15:26:01.668Z,3.07
2018-04-24T15:28:29.141Z,3.10
2018-04-24T15:30:56.597Z,3.20
2018-04-24T15:33:24.820Z,2.60
2018-04-24T15:35:52.315Z,2.73
2018-04-24T15:38:19.813Z,3.10
2018-04-24T15:40:47.281Z,2.80
2018-04-24T15:43:14.782Z,2.83
2018-04-24T15:45:42.231Z,2.90
2018-04-24T15:48:11.597Z,3.23
2018-04-24T15:50:39.057Z,2.60
2018-04-24T15:53:06.512Z,3.00
2018-04-24T15:55:34.811Z,2.97
2018-04-24T15:58:02.514Z,2.77
2018-04-24T16:00:30.002Z,2.93
2018-04-24T16:03:00.665Z,3.07
2018-04-24T16:05:28.349Z,3.10
2018-04-24T16:07:55.830Z,2.90
2018-04-24T16:10:23.323Z,2.63
2018-04-24T16:12:50.825Z,2.73
2018-04-24T16:15:18.346Z,3.00
2018-04-24T16:17:45.850Z,2.73
2018-04-24T16:20:13.304Z,2.73
2018-04-24T16:22:41.538Z,2.63
2018-04-24T16:25:08.985Z,3.13
2018-04-24T16:27:36.457Z,2.37
2018-04-24T16:30:03.964Z,2.60
2018-04-24T16:32:31.433Z,2.27
2018-04-24T16:34:58.890Z,2.60
2018-04-24T16:37:26.365Z,2.50
2018-04-24T16:39:53.816Z,2.60
2018-04-24T16:42:22.799Z,2.57
2018-04-24T16:44:50.252Z,2.80
2018-04-24T16:47:17.730Z,2.87
2018-04-24T16:49:45.181Z,2.70
2018-04-24T16:52:12.666Z,2.60
2018-04-24T16:54:40.123Z,2.33
2018-04-24T16:57:07.593Z,2.43
2018-04-24T16:59:35.068Z,2.43
2018-04-24T17:02:03.318Z,2.07
2018-04-24T17:04:30.809Z,1.77
2018-04-24T17:06:58.257Z,2.00
2018-04-24T17:09:25.713Z,2.10
2018-04-24T17:11:53.164Z,1.90
2018-04-24T17:14:27.053Z,1.90
2018-04-24T17:16:54.515Z,1.70
2018-04-24T17:19:22.030Z,2.20
2018-04-24T17:21:50.409Z,2.00
2018-04-24T17:24:17.873Z,2.07
2018-04-24T17:26:45.368Z,2.10
2018-04-24T17:29:12.836Z,2.10
2018-04-24T17:31:40.348Z,2.13
2018-04-24T17:34:07.806Z,2.23
2018-04-24T17:36:36.034Z,1.80
2018-04-24T17:39:04.292Z,2.30
2018-04-24T17:41:31.751Z,2.10
2018-04-24T17:43:59.300Z,2.23
2018-04-24T17:46:26.790Z,2.30
2018-04-24T17:48:54.285Z,2.30
2018-04-24T17:51:21.741Z,2.63
2018-04-24T17:53:49.982Z,2.60
2018-04-24T17:56:17.514Z,2.47
2018-04-24T17:58:45.769Z,2.80
2018-04-24T18:01:13.229Z,2.40
2018-04-24T18:03:41.470Z,2.43
2018-04-24T18:06:08.923Z,2.60
2018-04-24T18:08:36.442Z,2.67
2018-04-24T18:11:03.897Z,3.30
2018-04-24T18:13:32.144Z,2.80
2018-04-24T18:15:59.701Z,2.73
2018-04-24T18:18:27.251Z,3.20
2018-04-24T18:20:54.725Z,3.20
2018-04-24T18:23:22.339Z,3.40
2018-04-24T18:25:49.788Z,3.20
2018-04-24T18:28:17.240Z,3.20
2018-04-24T18:30:44.724Z,3.47
2018-04-24T18:35:49.672Z,3.17
2018-04-24T18:38:17.258Z,3.50
2018-04-24T18:40:44.766Z,3.50
2018-04-24T18:43:12.232Z,3.53
2018-04-24T18:45:39.685Z,3.47
2018-04-24T18:48:07.179Z,3.60
2018-04-24T18:50:34.733Z,3.70
2018-04-24T18:53:02.232Z,3.13
2018-04-24T18:55:29.704Z,3.40
2018-04-24T18:57:57.201Z,3.67
2018-04-24T19:00:24.665Z,3.50
2018-04-24T19:02:52.193Z,3.53
2018-04-24T19:05:19.648Z,4.00
2018-04-24T19:07:47.167Z,3.77
2018-04-24T19:10:14.632Z,3.63
2018-04-24T19:12:42.106Z,3.70
2018-04-24T19:15:09.557Z,4.47
2018-04-24T19:17:37.808Z,4.17
2018-04-24T19:20:05.264Z,3.97
2018-04-24T19:22:32.811Z,3.80
2018-04-24T19:25:05.920Z,3.93
2018-04-24T19:27:33.373Z,4.33
2018-04-24T19:30:00.906Z,4.50
2018-04-24T19:32:30.992Z,4.07
2018-04-24T19:34:59.219Z,4.50
2018-04-24T19:37:26.668Z,4.70
2018-04-24T19:39:59.862Z,4.50
2018-04-24T19:42:27.318Z,4.90
2018-04-24T19:44:54.810Z,5.43
2018-04-24T19:47:22.289Z,5.47
2018-04-24T19:49:55.349Z,5.70
2018-04-24T19:52:22.918Z,5.07
2018-04-24T19:54:56.023Z,4.90
2018-04-24T19:57:23.502Z,4.43
2018-04-24T19:59:50.953Z,4.83
2018-04-24T20:02:18.731Z,4.70
2018-04-24T20:04:46.304Z,4.70
2018-04-24T20:07:14.538Z,5.70
2018-04-24T20:09:42.049Z,5.00
2018-04-24T20:12:10.302Z,4.80
2018-04-24T20:14:37.758Z,5.03
2018-04-24T20:17:05.273Z,5.57
2018-04-24T20:19:32.734Z,5.67
2018-04-24T20:22:00.232Z,5.90
2018-04-24T20:24:27.701Z,5.70
2018-04-24T20:26:55.169Z,5.83
2018-04-24T20:29:22.616Z,5.57
2018-04-24T20:31:50.116Z,5.37
2018-04-24T20:34:53.200Z,5.23
2018-04-24T20:37:20.656Z,5.83
2018-04-24T20:39:48.877Z,6.13
2018-04-24T20:42:16.392Z,6.40
2018-04-24T20:44:43.845Z,5.87
2018-04-24T20:47:11.367Z,5.37
2018-04-24T20:49:38.820Z,6.00
2018-04-24T20:52:06.279Z,5.70
2018-04-24T20:54:34.505Z,5.77
2018-04-24T20:57:01.956Z,5.73
2018-04-24T20:59:29.413Z,6.10
2018-04-24T21:01:56.923Z,6.47
2018-04-24T21:04:24.393Z,6.23
2018-04-24T21:06:51.901Z,6.00
2018-04-24T21:09:19.357Z,6.20
2018-04-24T21:11:46.869Z,6.33
2018-04-24T21:14:14.332Z,6.50
2018-04-24T21:16:41.789Z,6.33
2018-04-24T21:19:09.312Z,6.37
2018-04-24T21:21:36.807Z,5.60
2018-04-24T21:24:04.281Z,6.07
2018-04-24T21:26:31.739Z,5.77
2018-04-24T21:28:59.201Z,5.77
2018-04-24T21:31:26.769Z,5.53
2018-04-24T21:33:54.333Z,6.70
2018-04-24T21:36:21.812Z,6.30
2018-04-24T21:38:50.097Z,6.63
2018-04-24T21:41:18.363Z,6.43
2018-04-24T21:43:45.873Z,6.67
2018-04-24T21:46:13.328Z,7.00
2018-04-24T21:48:41.582Z,6.87
2018-04-24T21:51:09.052Z,7.37
2018-04-24T21:53:36.519Z,6.93
2018-04-24T21:56:03.980Z,6.63
2018-04-24T21:58:31.491Z,6.97
2018-04-24T22:00:58.953Z,6.83
2018-04-24T22:03:26.463Z,6.53
2018-04-24T22:05:53.934Z,6.37
2018-04-24T22:08:21.393Z,6.10
2018-04-24T22:10:49.655Z,6.47
2018-04-24T22:13:17.118Z,7.10
2018-04-24T22:15:44.574Z,6.80
2018-04-24T22:18:12.034Z,7.20
2018-04-24T22:20:40.360Z,7.37
2018-04-24T22:23:07.794Z,7.33
2018-04-24T22:25:35.272Z,6.03
2018-04-24T22:28:02.743Z,6.57
2018-04-24T22:30:30.205Z,6.43
2018-04-24T22:32:57.658Z,6.33
2018-04-24T22:35:25.913Z,7.27
2018-04-24T22:37:53.403Z,8.40
2018-04-24T22:40:20.881Z,7.47
2018-04-24T22:42:48.332Z,7.00
2018-04-24T22:45:15.789Z,7.33
2018-04-24T22:47:44.012Z,7.77
2018-04-24T22:50:11.463Z,8.43
2018-04-24T22:52:39.008Z,8.43
2018-04-24T22:55:06.462Z,8.30
2018-04-24T22:57:33.917Z,7.30
2018-04-24T23:00:02.196Z,7.80
2018-04-24T23:02:29.688Z,7.07
2018-04-24T23:04:57.233Z,7.57
2018-04-24T23:07:24.684Z,8.40
2018-04-24T23:09:53.497Z,7.70
2018-04-24T23:12:32.800Z,7.60
2018-04-24T23:15:12.261Z,8.90
2018-04-24T23:17:51.633Z,8.13
2018-04-24T23:20:18.588Z,7.63
2018-04-24T23:22:46.047Z,8.93
2018-04-24T23:25:13.537Z,8.90
2018-04-24T23:27:41.787Z,9.03
2018-04-24T23:30:09.257Z,9.40
2018-04-24T23:32:36.722Z,9.17
2018-04-24T23:35:04.179Z,8.57
2018-04-24T23:37:32.528Z,8.33
2018-04-24T23:40:00.021Z,9.80
2018-04-24T23:42:27.496Z,8.83
2018-04-24T23:44:54.954Z,9.00
2018-04-24T23:47:22.411Z,9.00
2018-04-24T23:49:50.666Z,8.40
2018-04-24T23:52:18.148Z,8.63
2018-04-24T23:54:45.605Z,8.33
2018-04-24T23:57:13.073Z,8.73
2018-04-24T23:59:41.289Z,8.70
